Time;durP1;ratioP1;P1;durP2;ratioP2;P2;SDS_P1;SDS_P2;PMS_P1;PMS_P2;Temp;Humidity;BMP_temperature;BMP_pressure;BME280_temperature;BME280_humidity;BME280_pressure;Samples;Min_cycle;Max_cycle;Signal;HPM_P1;HPM_P2
2023/09/24 00:01:11;;;;;;;2.42;0.98;;;14.90;99.90;;;;;;5036898;28;20212;-69
2023/09/24 00:03:39;;;;;;;3.35;0.90;;;14.90;99.90;;;;;;5038733;28;21207;-70
2023/09/24 00:06:12;;;;;;;1.20;0.80;;;14.90;99.90;;;;;;5037398;28;20233;-73
2023/09/24 00:08:38;;;;;;;3.70;1.10;;;14.90;99.90;;;;;;5037764;28;20261;-73
2023/09/24 00:11:04;;;;;;;1.65;0.85;;;14.90;99.90;;;;;;5039624;28;20264;-73
2023/09/24 00:13:38;;;;;;;3.15;0.90;;;14.80;99.90;;;;;;5043556;28;20200;-73
2023/09/24 00:16:06;;;;;;;1.88;1.10;;;14.80;99.90;;;;;;5039444;28;20189;-74
2023/09/24 00:18:32;;;;;;;1.10;0.90;;;14.70;99.90;;;;;;5057435;28;20208;-71
2023/09/24 00:20:58;;;;;;;1.25;0.93;;;14.60;99.90;;;;;;5038827;28;20213;-73
2023/09/24 00:23:28;;;;;;;2.65;1.00;;;14.70;99.90;;;;;;5043567;28;20177;-72
2023/09/24 00:25:55;;;;;;;1.58;1.08;;;14.60;99.90;;;;;;5039678;28;20267;-73
2023/09/24 00:28:24;;;;;;;2.60;1.15;;;14.60;99.90;;;;;;5072551;28;20176;-73
2023/09/24 00:30:52;;;;;;;1.60;1.13;;;14.60;99.90;;;;;;5044516;28;20184;-72
2023/09/24 00:33:18;;;;;;;2.75;1.25;;;14.50;99.90;;;;;;5038809;28;20199;-73
2023/09/24 00:35:46;;;;;;;1.63;1.20;;;14.50;99.90;;;;;;5041521;28;20181;-73
2023/09/24 00:38:12;;;;;;;2.83;1.10;;;14.40;99.90;;;;;;5040921;28;20197;-72
2023/09/24 00:40:38;;;;;;;2.40;1.10;;;14.40;99.90;;;;;;5040416;28;20204;-72
2023/09/24 00:43:03;;;;;;;1.30;1.05;;;14.30;99.90;;;;;;5040391;28;20169;-72
2023/09/24 00:45:29;;;;;;;2.75;1.00;;;14.30;99.90;;;;;;5040915;28;20182;-72
2023/09/24 00:47:56;;;;;;;2.75;1.23;;;14.30;99.90;;;;;;5039873;28;20479;-73
2023/09/24 00:50:24;;;;;;;1.40;0.90;;;14.20;99.90;;;;;;5039754;28;20306;-73
2023/09/24 00:52:55;;;;;;;2.35;1.25;;;14.20;99.90;;;;;;5039597;28;20184;-73
2023/09/24 00:55:22;;;;;;;1.38;1.00;;;14.10;99.90;;;;;;5040146;28;20188;-71
2023/09/24 00:57:52;;;;;;;1.42;0.90;;;14.10;99.90;;;;;;5038926;28;20264;-73
2023/09/24 01:00:22;;;;;;;1.60;1.15;;;14.00;99.90;;;;;;5041200;28;20184;-73
2023/09/24 01:02:54;;;;;;;2.28;1.00;;;14.00;99.90;;;;;;5042316;28;20197;-72
2023/09/24 01:05:20;;;;;;;1.58;1.10;;;13.90;99.90;;;;;;5040641;28;20181;-72
2023/09/24 01:07:51;;;;;;;1.95;1.10;;;13.90;99.90;;;;;;5037960;28;20273;-73
2023/09/24 01:10:16;;;;;;;1.55;1.00;;;13.90;99.90;;;;;;5071041;28;20181;-72
2023/09/24 01:12:59;;;;;;;1.88;1.10;;;13.80;99.90;;;;;;5040250;28;20195;-72
2023/09/24 01:15:25;;;;;;;1.20;0.90;;;13.80;99.90;;;;;;5073551;28;20246;-72
2023/09/24 01:17:52;;;;;;;1.50;1.10;;;13.80;99.90;;;;;;5034649;28;20177;-73
2023/09/24 01:20:21;;;;;;;1.50;0.90;;;13.80;99.90;;;;;;5038813;28;20191;-71
2023/09/24 01:22:50;;;;;;;2.08;0.82;;;13.80;99.90;;;;;;5040775;28;20248;-70
2023/09/24 01:25:18;;;;;;;2.17;1.00;;;13.70;99.90;;;;;;5043921;28;20190;-74
2023/09/24 01:27:44;;;;;;;2.28;1.10;;;13.70;99.90;;;;;;5037946;28;20180;-73
2023/09/24 01:30:11;;;;;;;2.63;1.08;;;13.70;99.90;;;;;;5039877;28;20251;-73
2023/09/24 01:32:36;;;;;;;1.65;1.08;;;13.70;99.90;;;;;;5037175;28;20235;-72
2023/09/24 01:35:03;;;;;;;1.77;0.93;;;13.60;99.90;;;;;;5040161;28;20197;-73
2023/09/24 01:37:33;;;;;;;1.27;1.05;;;13.60;99.90;;;;;;5043030;28;20193;-71
2023/09/24 01:40:10;;;;;;;2.05;0.93;;;13.50;99.90;;;;;;5043283;28;20188;-71
2023/09/24 01:42:36;;;;;;;3.22;1.08;;;13.50;99.90;;;;;;5039681;28;20209;-72
2023/09/24 01:45:02;;;;;;;2.05;0.90;;;13.50;99.90;;;;;;5041862;28;20181;-73
2023/09/24 01:47:28;;;;;;;1.67;1.00;;;13.50;99.90;;;;;;5037951;28;20208;-73
2023/09/24 01:49:56;;;;;;;1.35;0.98;;;13.50;99.90;;;;;;5038939;28;20211;-73
2023/09/24 01:52:25;;;;;;;1.38;1.10;;;13.50;99.90;;;;;;5040141;28;20268;-72
2023/09/24 01:54:55;;;;;;;1.17;0.90;;;13.50;99.90;;;;;;5022669;28;20205;-73
2023/09/24 01:57:23;;;;;;;1.40;0.95;;;13.50;99.90;;;;;;5039190;28;20177;-73
2023/09/24 01:59:49;;;;;;;1.00;0.85;;;13.40;99.90;;;;;;5039214;28;20193;-73
2023/09/24 02:02:16;;;;;;;3.20;0.90;;;13.40;99.90;;;;;;5038791;28;20216;-72
2023/09/24 02:04:48;;;;;;;1.80;1.00;;;13.40;99.90;;;;;;5044843;28;20177;-71
2023/09/24 02:07:15;;;;;;;1.73;0.95;;;13.40;99.90;;;;;;5038007;28;20225;-72
2023/09/24 02:09:41;;;;;;;1.67;1.00;;;13.40;99.90;;;;;;5039440;28;20263;-73
2023/09/24 02:12:09;;;;;;;2.42;1.10;;;13.30;99.90;;;;;;5052764;28;20272;-73
2023/09/24 02:14:34;;;;;;;1.30;1.02;;;13.30;99.90;;;;;;5041279;28;20215;-73
2023/09/24 02:17:00;;;;;;;1.25;1.00;;;13.30;99.90;;;;;;5036713;28;20228;-73
2023/09/24 02:19:26;;;;;;;1.52;1.00;;;13.20;99.90;;;;;;5037904;28;20213;-72
2023/09/24 02:21:52;;;;;;;1.23;0.90;;;13.20;99.90;;;;;;5038015;28;20189;-71
2023/09/24 02:24:18;;;;;;;2.15;1.00;;;13.20;99.90;;;;;;5038749;28;20202;-74
2023/09/24 02:26:44;;;;;;;2.03;0.95;;;13.20;99.90;;;;;;5043605;28;20231;-72
2023/09/24 02:29:10;;;;;;;1.73;1.00;;;13.10;99.90;;;;;;5036413;28;20197;-74
2023/09/24 02:31:36;;;;;;;2.65;1.10;;;13.10;99.90;;;;;;5055114;28;20254;-73
2023/09/24 02:34:04;;;;;;;2.40;0.90;;;13.10;99.90;;;;;;5037122;28;20185;-72
2023/09/24 02:36:35;;;;;;;2.03;1.10;;;13.10;99.90;;;;;;5036349;28;20177;-73
2023/09/24 02:39:00;;;;;;;2.95;1.10;;;13.00;99.90;;;;;;5037143;28;20209;-73
2023/09/24 02:41:26;;;;;;;2.25;1.00;;;13.00;99.90;;;;;;5038954;28;20197;-73
2023/09/24 02:43:54;;;;;;;1.92;1.10;;;13.00;99.90;;;;;;5038455;28;20173;-73
2023/09/24 02:46:20;;;;;;;1.70;1.00;;;13.00;99.90;;;;;;5037643;28;20205;-73
2023/09/24 02:48:45;;;;;;;1.85;1.00;;;12.90;99.90;;;;;;5071664;28;20181;-74
2023/09/24 02:51:13;;;;;;;2.58;1.00;;;12.90;99.90;;;;;;5038977;28;20181;-73
2023/09/24 02:53:39;;;;;;;1.77;1.02;;;12.90;99.90;;;;;;5035825;28;20291;-72
2023/09/24 02:56:05;;;;;;;1.92;1.20;;;12.80;99.90;;;;;;5037085;28;20272;-73
2023/09/24 02:58:31;;;;;;;2.70;1.00;;;12.80;99.90;;;;;;5043527;28;20181;-72
2023/09/24 03:00:59;;;;;;;1.48;1.00;;;12.80;99.90;;;;;;5037282;28;20208;-71
2023/09/24 03:03:25;;;;;;;1.70;1.00;;;12.80;99.90;;;;;;5038029;28;20185;-73
2023/09/24 03:05:51;;;;;;;2.28;1.00;;;12.70;99.90;;;;;;5038273;28;20259;-73
2023/09/24 03:08:16;;;;;;;1.35;0.80;;;12.70;99.90;;;;;;5035483;28;20200;-73
2023/09/24 03:10:47;;;;;;;2.53;1.00;;;12.80;99.90;;;;;;5038938;28;20184;-71
2023/09/24 03:13:12;;;;;;;1.10;0.93;;;12.70;99.90;;;;;;5040466;28;20268;-67
2023/09/24 03:15:38;;;;;;;1.27;1.00;;;12.70;99.90;;;;;;5072280;28;20208;-66
2023/09/24 03:18:04;;;;;;;1.73;1.13;;;12.60;99.90;;;;;;5037843;28;20173;-69
2023/09/24 03:20:31;;;;;;;1.83;1.08;;;12.60;99.90;;;;;;5037163;28;20335;-69
2023/09/24 03:23:08;;;;;;;1.52;1.15;;;12.60;99.90;;;;;;5041022;28;20176;-66
2023/09/24 03:25:34;;;;;;;2.10;1.10;;;12.60;99.90;;;;;;5069524;28;20183;-66
2023/09/24 03:28:02;;;;;;;1.15;0.82;;;12.70;99.90;;;;;;5037663;28;20349;-67
2023/09/24 03:30:28;;;;;;;1.73;1.02;;;12.60;99.90;;;;;;5038658;28;20217;-69
2023/09/24 03:32:58;;;;;;;1.35;0.95;;;12.60;99.90;;;;;;5053610;28;20213;-69
2023/09/24 03:35:25;;;;;;;1.30;1.10;;;12.60;99.90;;;;;;5036937;28;20189;-67
2023/09/24 03:37:54;;;;;;;1.52;0.90;;;12.50;99.90;;;;;;5053071;28;20201;-69
2023/09/24 03:40:23;;;;;;;3.05;1.08;;;12.50;99.90;;;;;;5036075;28;21219;-69
2023/09/24 03:42:51;;;;;;;1.15;0.90;;;12.50;99.90;;;;;;5037315;28;20188;-69
2023/09/24 03:45:25;;;;;;;1.63;1.00;;;12.50;99.90;;;;;;5039219;28;20186;-67
2023/09/24 03:47:51;;;;;;;1.50;0.98;;;12.50;99.90;;;;;;5073091;28;20222;-69
2023/09/24 03:50:20;;;;;;;1.40;1.08;;;12.40;99.90;;;;;;5042533;28;20192;-69
2023/09/24 03:52:48;;;;;;;1.77;1.10;;;12.40;99.90;;;;;;5038952;28;20169;-66
2023/09/24 03:55:17;;;;;;;1.27;1.00;;;12.40;99.90;;;;;;5042094;28;20204;-69
2023/09/24 03:57:43;;;;;;;1.20;1.10;;;12.40;99.90;;;;;;5041316;28;20173;-70
2023/09/24 04:00:18;;;;;;;1.60;0.95;;;12.40;99.90;;;;;;5040525;28;20180;-69
2023/09/24 04:02:47;;;;;;;1.77;1.05;;;12.30;99.90;;;;;;5044693;28;20298;-68
2023/09/24 04:05:18;;;;;;;2.63;1.00;;;12.30;99.90;;;;;;5037428;28;20181;-65
2023/09/24 04:07:49;;;;;;;1.88;1.23;;;12.30;99.90;;;;;;5077151;28;20189;-64
2023/09/24 04:10:15;;;;;;;1.25;1.00;;;12.30;99.90;;;;;;5039797;28;20192;-70
2023/09/24 04:12:43;;;;;;;1.85;1.10;;;12.30;99.90;;;;;;5038589;28;20181;-68
2023/09/24 04:15:09;;;;;;;1.08;0.98;;;12.30;99.90;;;;;;5039090;28;20197;-69
2023/09/24 04:17:39;;;;;;;1.33;1.00;;;12.30;99.90;;;;;;5023608;28;20206;-69
2023/09/24 04:20:11;;;;;;;1.05;0.90;;;12.20;99.90;;;;;;5039868;28;20219;-66
2023/09/24 04:22:37;;;;;;;1.33;1.15;;;12.20;99.90;;;;;;5042277;28;20184;-68
2023/09/24 04:25:07;;;;;;;1.63;1.10;;;12.20;99.90;;;;;;5041294;28;20256;-69
2023/09/24 04:27:38;;;;;;;2.03;1.00;;;12.20;99.90;;;;;;5042755;28;20205;-67
2023/09/24 04:30:08;;;;;;;1.80;1.02;;;12.20;99.90;;;;;;5036546;28;20185;-65
2023/09/24 04:32:36;;;;;;;1.15;1.00;;;12.20;99.90;;;;;;5039433;28;20178;-69
2023/09/24 04:35:05;;;;;;;1.63;0.98;;;12.20;99.90;;;;;;5041169;28;20273;-69
2023/09/24 04:37:33;;;;;;;2.33;0.93;;;12.10;99.90;;;;;;5039888;28;20185;-70
2023/09/24 04:39:58;;;;;;;1.15;1.02;;;12.10;99.90;;;;;;5039135;28;20212;-71
2023/09/24 04:42:24;;;;;;;1.10;1.00;;;12.10;99.90;;;;;;5041039;28;20185;-68
2023/09/24 04:44:50;;;;;;;1.30;0.98;;;12.10;99.90;;;;;;5040899;28;20178;-71
2023/09/24 04:47:15;;;;;;;5.35;3.92;;;12.10;99.90;;;;;;5042372;28;20203;-69
2023/09/24 04:49:43;;;;;;;6.88;4.70;;;12.10;99.90;;;;;;5039711;28;20205;-71
2023/09/24 04:52:11;;;;;;;4.95;2.90;;;12.10;99.90;;;;;;5041274;28;20197;-65
2023/09/24 04:54:39;;;;;;;2.92;2.20;;;12.10;99.90;;;;;;5058384;28;20264;-71
2023/09/24 04:57:09;;;;;;;2.97;2.40;;;12.00;99.90;;;;;;5043158;28;20182;-69
2023/09/24 04:59:35;;;;;;;2.90;1.88;;;12.00;99.90;;;;;;5038947;28;20259;-71
2023/09/24 05:02:05;;;;;;;2.70;2.05;;;12.00;99.90;;;;;;5041007;28;20221;-65
2023/09/24 05:04:32;;;;;;;2.05;1.60;;;12.00;99.90;;;;;;5036312;28;20258;-72
2023/09/24 05:06:57;;;;;;;2.85;1.80;;;12.10;99.90;;;;;;5039911;28;20203;-65
2023/09/24 05:09:23;;;;;;;2.15;1.60;;;12.10;99.90;;;;;;5043307;28;20173;-70
2023/09/24 05:11:51;;;;;;;1.75;1.35;;;12.10;99.90;;;;;;5041140;28;20188;-70
2023/09/24 05:14:20;;;;;;;2.47;1.45;;;12.10;99.90;;;;;;5042248;28;20189;-69
2023/09/24 05:16:50;;;;;;;2.22;1.65;;;12.00;99.90;;;;;;5038896;28;20185;-71
2023/09/24 05:19:19;;;;;;;1.50;1.40;;;12.10;99.90;;;;;;5039631;28;20278;-71
2023/09/24 05:21:45;;;;;;;2.25;1.45;;;12.00;99.90;;;;;;5040840;28;20193;-68
2023/09/24 05:24:11;;;;;;;3.28;1.90;;;12.00;99.90;;;;;;5040374;28;20185;-68
2023/09/24 05:26:37;;;;;;;1.58;1.40;;;12.00;99.90;;;;;;5038412;28;20216;-70
2023/09/24 05:29:03;;;;;;;1.98;1.30;;;12.00;99.90;;;;;;5036730;28;20173;-71
2023/09/24 05:31:28;;;;;;;2.25;1.75;;;12.00;99.90;;;;;;5058179;28;20205;-70
2023/09/24 05:33:54;;;;;;;3.13;1.50;;;12.00;99.90;;;;;;5038247;28;20177;-71
2023/09/24 05:36:22;;;;;;;1.70;1.60;;;12.00;99.90;;;;;;5038144;28;20239;-71
2023/09/24 05:38:47;;;;;;;1.77;1.38;;;12.00;99.90;;;;;;5039113;28;20268;-70
2023/09/24 05:41:13;;;;;;;3.63;1.52;;;12.00;99.90;;;;;;5038802;28;20280;-71
2023/09/24 05:43:44;;;;;;;2.92;1.95;;;12.00;99.90;;;;;;5059850;28;21077;-71
2023/09/24 05:46:14;;;;;;;5.18;3.42;;;12.00;99.90;;;;;;5041363;28;20176;-71
2023/09/24 05:48:42;;;;;;;3.72;3.13;;;12.00;99.90;;;;;;5039313;28;20196;-71
2023/09/24 05:51:10;;;;;;;3.70;2.40;;;12.00;99.90;;;;;;5041972;28;20843;-71
2023/09/24 05:53:36;;;;;;;4.80;2.53;;;12.00;99.90;;;;;;5037554;28;20188;-68
2023/09/24 05:56:03;;;;;;;3.22;2.30;;;12.00;99.90;;;;;;5038289;28;20237;-70
2023/09/24 05:58:29;;;;;;;3.15;2.75;;;12.00;99.90;;;;;;5038484;28;20179;-68
2023/09/24 06:00:58;;;;;;;3.05;2.17;;;12.00;99.90;;;;;;5038280;28;20180;-69
2023/09/24 06:03:24;;;;;;;3.65;1.95;;;12.00;99.90;;;;;;5040946;28;20461;-69
2023/09/24 06:05:49;;;;;;;2.40;1.80;;;12.00;99.90;;;;;;5055903;28;20201;-69
2023/09/24 06:08:17;;;;;;;3.15;1.50;;;12.00;99.90;;;;;;5039175;28;20211;-70
2023/09/24 06:10:46;;;;;;;1.73;1.40;;;11.90;99.90;;;;;;5037369;28;20185;-68
2023/09/24 06:13:16;;;;;;;2.33;1.70;;;12.00;99.90;;;;;;5034534;28;20182;-69
2023/09/24 06:15:42;;;;;;;3.40;1.65;;;12.00;99.90;;;;;;5039341;28;20245;-71
2023/09/24 06:18:09;;;;;;;3.17;1.30;;;12.00;99.90;;;;;;5037933;28;20192;-69
2023/09/24 06:20:39;;;;;;;2.20;1.50;;;12.00;99.90;;;;;;5037722;28;20212;-70
2023/09/24 06:23:05;;;;;;;2.85;2.00;;;12.00;99.90;;;;;;5039326;28;20250;-69
2023/09/24 06:25:31;;;;;;;5.28;3.38;;;12.00;99.90;;;;;;5037788;28;20188;-70
2023/09/24 06:27:57;;;;;;;2.88;2.22;;;12.00;99.90;;;;;;5036936;28;20185;-71
2023/09/24 06:30:23;;;;;;;3.35;2.17;;;12.10;99.90;;;;;;5037365;28;20178;-66
2023/09/24 06:32:51;;;;;;;3.65;2.00;;;12.10;99.90;;;;;;5068758;28;20235;-70
2023/09/24 06:35:18;;;;;;;1.95;1.63;;;12.20;99.90;;;;;;5038021;28;20196;-69
2023/09/24 06:37:44;;;;;;;4.75;2.45;;;12.20;99.90;;;;;;5038974;28;20185;-70
2023/09/24 06:40:10;;;;;;;3.13;1.75;;;12.30;99.90;;;;;;5038832;28;20330;-69
2023/09/24 06:42:37;;;;;;;3.72;1.80;;;12.30;99.90;;;;;;5074974;28;20200;-71
2023/09/24 06:45:04;;;;;;;2.00;1.60;;;12.40;99.90;;;;;;5071114;28;20278;-70
2023/09/24 06:47:32;;;;;;;3.45;1.80;;;12.40;99.90;;;;;;5056585;28;20173;-68
2023/09/24 06:49:58;;;;;;;1.80;1.60;;;12.50;99.90;;;;;;5037199;28;20196;-71
2023/09/24 06:52:26;;;;;;;2.67;1.50;;;12.50;99.90;;;;;;5037114;28;20194;-66
2023/09/24 06:54:52;;;;;;;2.08;1.63;;;12.60;99.90;;;;;;5038413;28;20208;-70
2023/09/24 06:57:17;;;;;;;1.75;1.30;;;12.60;99.90;;;;;;5037763;28;20236;-68
2023/09/24 06:59:43;;;;;;;2.22;1.48;;;12.70;99.90;;;;;;5041349;28;20208;-70
2023/09/24 07:02:09;;;;;;;1.80;1.40;;;12.70;99.90;;;;;;5038825;28;20204;-69
2023/09/24 07:04:35;;;;;;;2.60;1.48;;;12.80;99.90;;;;;;5036846;28;20205;-70
2023/09/24 07:07:01;;;;;;;2.38;1.63;;;12.90;99.90;;;;;;5038578;28;20173;-70
2023/09/24 07:09:27;;;;;;;1.98;1.30;;;12.90;99.90;;;;;;5038686;28;20177;-68
2023/09/24 07:11:58;;;;;;;1.67;1.30;;;12.90;99.90;;;;;;5057028;28;20197;-71
2023/09/24 07:14:24;;;;;;;2.15;1.33;;;13.00;99.90;;;;;;5039830;28;20181;-71
2023/09/24 07:16:49;;;;;;;3.72;1.40;;;13.00;99.90;;;;;;5035448;28;20188;-71
2023/09/24 07:19:15;;;;;;;2.20;1.70;;;13.10;99.90;;;;;;5038973;28;20278;-71
2023/09/24 07:21:43;;;;;;;2.85;1.60;;;13.10;99.90;;;;;;5041769;28;20231;-68
2023/09/24 07:24:09;;;;;;;3.90;1.42;;;13.20;99.90;;;;;;5041845;28;20452;-65
2023/09/24 07:26:34;;;;;;;2.40;1.48;;;13.30;99.90;;;;;;5038204;28;20174;-68
2023/09/24 07:29:00;;;;;;;1.83;1.58;;;13.30;99.90;;;;;;5041666;28;20203;-71
2023/09/24 07:31:28;;;;;;;2.35;1.58;;;13.40;99.90;;;;;;5037132;28;20205;-69
2023/09/24 07:33:58;;;;;;;2.40;1.25;;;13.40;99.90;;;;;;5040402;28;20210;-71
2023/09/24 07:36:26;;;;;;;3.65;1.75;;;13.50;99.90;;;;;;5038652;28;20181;-70
2023/09/24 07:38:52;;;;;;;2.58;1.38;;;13.60;99.90;;;;;;5038118;28;20219;-71
2023/09/24 07:41:20;;;;;;;2.20;1.40;;;13.60;99.90;;;;;;5036765;28;20197;-71
2023/09/24 07:43:46;;;;;;;2.75;1.50;;;13.70;99.90;;;;;;5038581;28;20260;-71
2023/09/24 07:46:14;;;;;;;2.95;1.58;;;13.80;99.90;;;;;;5036760;28;20340;-70
2023/09/24 07:48:42;;;;;;;2.08;1.50;;;13.90;99.90;;;;;;5037515;28;20185;-71
2023/09/24 07:51:08;;;;;;;1.80;1.42;;;13.90;99.90;;;;;;5044632;28;20200;-71
2023/09/24 07:53:34;;;;;;;2.25;1.65;;;14.10;99.90;;;;;;5037645;28;20182;-69
2023/09/24 07:56:07;;;;;;;2.17;1.40;;;14.10;99.90;;;;;;5041515;28;20196;-70
2023/09/24 07:58:33;;;;;;;1.80;1.60;;;14.20;99.90;;;;;;5038604;28;20200;-69
2023/09/24 08:01:03;;;;;;;2.45;1.48;;;14.20;99.90;;;;;;5039732;28;20299;-69
2023/09/24 08:03:34;;;;;;;3.35;1.65;;;14.30;99.90;;;;;;5039333;28;20275;-71
2023/09/24 08:06:05;;;;;;;3.05;1.80;;;14.40;99.90;;;;;;5039571;28;20201;-71
2023/09/24 08:08:38;;;;;;;4.03;2.97;;;14.50;99.90;;;;;;5038697;28;20173;-71
2023/09/24 08:11:06;;;;;;;2.67;2.00;;;14.50;99.90;;;;;;5036095;28;20185;-69
2023/09/24 08:13:32;;;;;;;3.15;2.03;;;14.60;99.90;;;;;;5040120;28;20201;-71
2023/09/24 08:16:00;;;;;;;3.75;1.80;;;14.70;99.90;;;;;;5039449;28;20184;-70
2023/09/24 08:18:26;;;;;;;2.38;1.67;;;14.80;99.90;;;;;;5041258;28;20183;-69
2023/09/24 08:20:53;;;;;;;1.75;1.40;;;14.80;99.90;;;;;;5036934;28;20215;-66
2023/09/24 08:23:20;;;;;;;2.33;1.60;;;14.90;99.90;;;;;;5038948;28;20177;-68
2023/09/24 08:25:48;;;;;;;2.55;1.75;;;15.10;99.90;;;;;;5040381;28;20211;-70
2023/09/24 08:28:14;;;;;;;2.83;1.70;;;15.10;99.90;;;;;;5036892;28;20196;-71
2023/09/24 08:30:39;;;;;;;3.10;1.50;;;15.10;99.90;;;;;;5039096;28;20178;-69
2023/09/24 08:33:07;;;;;;;3.88;1.83;;;15.20;99.90;;;;;;5042481;28;20197;-71
2023/09/24 08:35:32;;;;;;;2.97;2.00;;;15.30;99.90;;;;;;5042620;28;20205;-68
2023/09/24 08:37:58;;;;;;;2.38;1.67;;;15.40;99.90;;;;;;5042237;28;20200;-70
2023/09/24 08:40:30;;;;;;;2.53;1.60;;;15.50;99.90;;;;;;5042509;28;20212;-71
2023/09/24 08:42:57;;;;;;;2.88;1.70;;;15.50;99.90;;;;;;5039297;28;20177;-70
2023/09/24 08:45:31;;;;;;;3.22;1.80;;;15.70;99.90;;;;;;5039637;28;21164;-71
2023/09/24 08:47:59;;;;;;;2.22;1.75;;;15.70;99.90;;;;;;5040530;28;20281;-71
2023/09/24 08:50:25;;;;;;;2.80;1.70;;;15.90;99.90;;;;;;5040695;28;20210;-68
2023/09/24 08:52:53;;;;;;;1.75;1.45;;;15.90;99.90;;;;;;5041060;28;20205;-69
2023/09/24 08:55:21;;;;;;;2.70;1.58;;;16.00;99.90;;;;;;5039054;28;20182;-69
2023/09/24 08:57:51;;;;;;;2.05;1.42;;;16.10;99.90;;;;;;5039593;28;20173;-69
2023/09/24 09:00:17;;;;;;;1.83;1.50;;;16.20;99.90;;;;;;5039320;28;20197;-71
2023/09/24 09:02:45;;;;;;;2.13;1.30;;;16.30;99.90;;;;;;5035595;28;20205;-70
2023/09/24 09:05:25;;;;;;;2.67;1.67;;;16.40;99.90;;;;;;5037778;28;20266;-70
2023/09/24 09:08:03;;;;;;;2.78;1.50;;;16.50;99.90;;;;;;5038348;28;20320;-71
2023/09/24 09:10:32;;;;;;;2.47;1.50;;;16.60;99.90;;;;;;5044010;28;20177;-71
2023/09/24 09:13:22;;;;;;;1.90;1.40;;;16.70;99.90;;;;;;5040175;28;20212;-71
2023/09/24 09:16:02;;;;;;;2.38;1.73;;;16.90;99.90;;;;;;5040633;28;20194;-71
2023/09/24 09:18:31;;;;;;;1.75;1.30;;;17.00;99.90;;;;;;5039031;28;20181;-71
2023/09/24 09:20:59;;;;;;;2.28;1.23;;;17.10;99.90;;;;;;5036233;28;20253;-69
2023/09/24 09:23:44;;;;;;;1.92;1.40;;;17.20;99.90;;;;;;5041034;28;20185;-69
2023/09/24 09:26:16;;;;;;;1.80;1.40;;;17.40;99.90;;;;;;5040830;28;20224;-71
2023/09/24 09:28:46;;;;;;;3.80;1.67;;;17.50;99.90;;;;;;5039072;28;20196;-67
2023/09/24 09:31:20;;;;;;;3.35;1.50;;;17.60;99.90;;;;;;5039570;28;20174;-72
2023/09/24 09:33:48;;;;;;;2.50;1.27;;;17.80;99.90;;;;;;5057613;28;20204;-70
2023/09/24 09:36:27;;;;;;;3.17;1.80;;;18.20;99.90;;;;;;5037796;28;20233;-71
2023/09/24 09:38:56;;;;;;;3.58;1.20;;;18.80;99.90;;;;;;5057520;28;20291;-70
2023/09/24 09:41:26;;;;;;;3.10;1.27;;;19.60;99.90;;;;;;5055604;28;20518;-69
2023/09/24 09:44:00;;;;;;;1.10;0.93;;;20.30;99.90;;;;;;5038733;28;20174;-73
2023/09/24 09:46:26;;;;;;;1.60;1.00;;;21.00;99.90;;;;;;5040550;28;20201;-72
2023/09/24 09:49:07;;;;;;;1.63;1.00;;;21.70;99.90;;;;;;5039873;28;20187;-70
2023/09/24 09:51:41;;;;;;;1.70;1.00;;;22.20;99.90;;;;;;5042520;28;20181;-65
2023/09/24 09:54:07;;;;;;;2.10;1.25;;;22.60;99.90;;;;;;5068489;28;20205;-72
2023/09/24 09:56:40;;;;;;;3.28;1.20;;;23.00;99.90;;;;;;5038549;28;20332;-71
2023/09/24 09:59:07;;;;;;;1.77;1.10;;;23.40;99.90;;;;;;5038306;28;20262;-73
2023/09/24 10:01:36;;;;;;;1.30;0.90;;;23.80;99.90;;;;;;5038797;28;20209;-71
2023/09/24 10:04:04;;;;;;;2.50;1.13;;;24.20;99.90;;;;;;5038381;28;20236;-68
2023/09/24 10:06:35;;;;;;;3.00;1.00;;;24.40;99.90;;;;;;5037193;28;20284;-70
2023/09/24 10:09:20;;;;;;;1.55;0.90;;;24.60;99.90;;;;;;5071592;28;20181;-69
2023/09/24 10:11:50;;;;;;;2.90;0.88;;;24.80;99.90;;;;;;5038101;28;20263;-68
2023/09/24 10:14:40;;;;;;;2.67;0.93;;;24.90;99.90;;;;;;5070337;28;20206;-72
2023/09/24 10:17:25;;;;;;;1.73;0.80;;;25.10;99.90;;;;;;5044135;28;20268;-68
2023/09/24 10:19:59;;;;;;;1.52;1.05;;;25.20;99.90;;;;;;5041320;28;20209;-67
2023/09/24 10:22:30;;;;;;;2.95;0.98;;;25.30;99.90;;;;;;5037655;28;20297;-74
2023/09/24 10:24:56;;;;;;;2.60;1.40;;;25.30;99.90;;;;;;5039900;28;20484;-69
2023/09/24 10:27:29;;;;;;;2.20;1.05;;;25.30;99.90;;;;;;5036680;28;20273;-71
2023/09/24 10:29:55;;;;;;;1.50;1.00;;;25.30;99.90;;;;;;5038486;28;20173;-72
2023/09/24 10:32:26;;;;;;;1.23;0.77;;;25.40;99.90;;;;;;5037628;28;20205;-69
2023/09/24 10:34:52;;;;;;;1.23;0.80;;;25.50;99.90;;;;;;5037992;28;20276;-72
2023/09/24 10:37:19;;;;;;;1.90;1.08;;;25.50;99.90;;;;;;5036967;28;20271;-67
2023/09/24 10:40:00;;;;;;;1.20;0.85;;;25.50;99.90;;;;;;5042498;28;20991;-72
2023/09/24 10:42:30;;;;;;;1.90;1.10;;;25.50;99.90;;;;;;5050983;28;20215;-72
2023/09/24 10:45:08;;;;;;;1.50;0.90;;;25.50;99.90;;;;;;5071827;28;20205;-68
2023/09/24 10:47:38;;;;;;;1.15;0.80;;;25.40;99.90;;;;;;5052609;28;20216;-69
2023/09/24 10:50:15;;;;;;;1.00;0.82;;;25.40;99.90;;;;;;5037405;28;20165;-73
2023/09/24 10:52:59;;;;;;;2.83;0.90;;;25.40;99.90;;;;;;5039699;28;20221;-70
2023/09/24 10:55:31;;;;;;;2.33;0.90;;;25.30;99.90;;;;;;5056273;28;20192;-72
2023/09/24 10:57:57;;;;;;;1.50;0.80;;;25.30;99.90;;;;;;5054056;28;20173;-69
2023/09/24 11:00:27;;;;;;;3.00;0.90;;;25.30;99.90;;;;;;5053106;28;20258;-70
2023/09/24 11:02:55;;;;;;;2.17;1.00;;;25.30;99.90;;;;;;5039699;28;20242;-70
2023/09/24 11:05:20;;;;;;;1.48;0.88;;;25.30;99.90;;;;;;5056341;28;20177;-70
2023/09/24 11:07:46;;;;;;;2.45;1.05;;;25.30;99.90;;;;;;5040682;28;20254;-70
2023/09/24 11:10:19;;;;;;;1.33;0.68;;;25.30;99.90;;;;;;5036907;28;20268;-72
2023/09/24 11:13:00;;;;;;;2.22;0.80;;;25.20;99.90;;;;;;5037616;28;20196;-69
2023/09/24 11:15:32;;;;;;;0.93;0.65;;;25.20;99.90;;;;;;5038241;28;20177;-70
2023/09/24 11:17:58;;;;;;;1.00;0.57;;;25.30;99.90;;;;;;5037293;28;20205;-66
2023/09/24 11:20:30;;;;;;;1.00;0.70;;;25.20;99.90;;;;;;5035490;28;20197;-71
2023/09/24 11:23:11;;;;;;;1.10;0.80;;;25.20;99.90;;;;;;5038093;28;20185;-69
2023/09/24 11:25:38;;;;;;;1.15;0.80;;;25.30;99.90;;;;;;5037911;28;20189;-71
2023/09/24 11:28:04;;;;;;;1.73;0.90;;;25.30;99.90;;;;;;5035938;28;20201;-67
2023/09/24 11:30:43;;;;;;;1.90;0.70;;;25.30;99.90;;;;;;5035540;28;20205;-70
2023/09/24 11:33:20;;;;;;;1.13;0.55;;;25.30;99.90;;;;;;5036510;28;20181;-66
2023/09/24 11:35:46;;;;;;;2.13;1.00;;;25.30;99.90;;;;;;5070517;28;20188;-73
2023/09/24 11:38:32;;;;;;;2.88;0.82;;;25.40;99.90;;;;;;5037592;28;20193;-73
2023/09/24 11:41:09;;;;;;;1.40;0.80;;;25.40;99.90;;;;;;5037257;28;20204;-70
2023/09/24 11:43:36;;;;;;;3.08;1.02;;;25.30;99.90;;;;;;5036867;28;20168;-71
2023/09/24 11:46:14;;;;;;;2.05;1.10;;;25.30;99.90;;;;;;5038101;28;20177;-72
2023/09/24 11:48:40;;;;;;;2.15;1.10;;;25.40;99.90;;;;;;5039124;28;20215;-73
2023/09/24 11:51:08;;;;;;;2.38;1.10;;;25.40;99.90;;;;;;5037155;28;20184;-71
2023/09/24 11:53:35;;;;;;;1.67;1.00;;;25.30;99.90;;;;;;5039526;28;20193;-67
2023/09/24 11:56:01;;;;;;;0.80;0.70;;;25.40;99.90;;;;;;5039168;28;20209;-73
2023/09/24 11:58:27;;;;;;;1.65;0.82;;;25.40;99.90;;;;;;5036664;28;20204;-72
2023/09/24 12:00:55;;;;;;;1.73;0.90;;;25.40;99.90;;;;;;5037804;28;20300;-70
2023/09/24 12:03:21;;;;;;;1.35;0.80;;;25.50;99.90;;;;;;5039979;28;20201;-72
2023/09/24 12:05:47;;;;;;;1.73;1.00;;;25.50;99.90;;;;;;5040925;28;20201;-72
2023/09/24 12:08:13;;;;;;;2.00;1.00;;;25.50;99.90;;;;;;5041493;28;20208;-70
2023/09/24 12:10:40;;;;;;;2.42;0.80;;;25.60;99.90;;;;;;5043111;28;20215;-71
2023/09/24 12:13:10;;;;;;;2.25;1.00;;;25.60;99.90;;;;;;5039111;28;20173;-68
2023/09/24 12:15:39;;;;;;;1.23;1.00;;;25.70;99.90;;;;;;5039560;28;20188;-66
2023/09/24 12:18:08;;;;;;;1.55;0.93;;;25.70;99.90;;;;;;5039343;28;20238;-73
2023/09/24 12:20:38;;;;;;;2.38;1.10;;;25.70;99.90;;;;;;5042944;28;20187;-72
2023/09/24 12:23:08;;;;;;;2.35;1.10;;;25.70;99.90;;;;;;5039261;28;20201;-71
2023/09/24 12:25:36;;;;;;;2.10;1.10;;;25.70;99.90;;;;;;5043701;28;20188;-73
2023/09/24 12:28:06;;;;;;;2.17;1.17;;;25.70;99.90;;;;;;5041593;28;20177;-71
2023/09/24 12:30:33;;;;;;;1.35;1.02;;;25.70;99.90;;;;;;5041336;28;20193;-73
2023/09/24 12:32:59;;;;;;;1.38;0.85;;;25.80;99.90;;;;;;5038683;28;20181;-72
2023/09/24 12:35:25;;;;;;;1.08;0.98;;;25.80;99.90;;;;;;5039976;28;20199;-69
2023/09/24 12:37:54;;;;;;;0.95;0.80;;;25.80;99.90;;;;;;5041709;28;20229;-71
2023/09/24 12:40:21;;;;;;;1.70;1.00;;;25.80;99.90;;;;;;5037988;28;20177;-69
2023/09/24 12:42:46;;;;;;;1.33;0.80;;;25.80;99.90;;;;;;5039255;28;20213;-70
2023/09/24 12:45:15;;;;;;;1.17;0.77;;;25.90;99.90;;;;;;5038097;28;20272;-69
2023/09/24 12:47:41;;;;;;;2.33;1.20;;;25.90;99.90;;;;;;5038727;28;20173;-71
2023/09/24 12:50:10;;;;;;;2.35;1.10;;;25.90;99.90;;;;;;5043239;28;20184;-71
2023/09/24 12:52:38;;;;;;;1.30;0.60;;;26.00;99.90;;;;;;5058165;28;20196;-72
2023/09/24 12:55:07;;;;;;;1.30;0.80;;;26.00;99.90;;;;;;5041246;28;20178;-71